MRY weather

Monterey Peninsula Airport
Monterey, California, United States

Public forecast

Using degrees Fahrenheit for public forecast. Weather courtesy of forecast.io.

Current aviation weather report (METAR) for Monterey Peninsula Airport

Retrieved 2020/02/24 20:54 UTC (44 minutes ago):

KMRY 242054Z 32005KT 9SM CLR 16/09 A3031 RMK AO2 SLP277 T01610094 58023

Aviation forecast (TAF) for Monterey Peninsula Airport

Retrieved 2020/02/24 18:45 UTC (3 hours ago):

TAF KMRY 241743Z 2418/2518 00000KT P6SM SCT002 FM241830 24005KT P6SM FEW006 FM242100 29006KT P6SM SKC FM250400 09004KT P6SM SKC FM251300 02005KT P6SM SKC